Terminal Aerodrome Forecast
Issued by NWS Brownsville, TX

Home | Current Version | Previous Version | Text Only | Print | Product List | Glossary On
Versions: 1 2 3 4 5 6 7 8 9 10 11 12 13 14 15 16
000
FTUS44 KBRO 310014 AAA
TAFMFE
TAF AMD
KMFE 310014Z 3100/3124 05010KT P6SM VCSH FEW020 BKN045
      TEMPO 3100/3102 SHRA BKN020
     FM310200 03010KT P6SM SCT035 SCT080
     FM310500 VRB05KT P6SM SCT025 BKN035
     FM311400 35008KT P6SM VCSH FEW015 BKN025
     FM312000 06010G16KT P6SM VCSH BKN035=

USA.gov is the U.S. government's official web portal to all federal, state and local government web resources and services.